Time;durP1;ratioP1;P1;durP2;ratioP2;P2;SDS_P1;SDS_P2;PMS_P1;PMS_P2;Temp;Humidity;BMP_temperature;BMP_pressure;BME280_temperature;BME280_humidity;BME280_pressure;Samples;Min_cycle;Max_cycle;Signal;HPM_P1;HPM_P2
2022/01/13 00:01:41;;;;;;;87.13;12.23;;;6.80;99.90;;;;;;5053792;28;20443;-69
2022/01/13 00:04:10;;;;;;;91.72;12.30;;;6.90;99.90;;;;;;5054032;28;20020;-69
2022/01/13 00:06:36;;;;;;;80.78;11.07;;;6.90;99.90;;;;;;5053579;28;20064;-69
2022/01/13 00:09:02;;;;;;;96.47;11.45;;;6.90;99.90;;;;;;5053696;28;20118;-68
2022/01/13 00:11:28;;;;;;;80.63;13.57;;;7.00;99.90;;;;;;5053615;28;20031;-68
2022/01/13 00:19:47;;;;;;;102.65;12.15;;;7.00;99.90;;;;;;5054116;28;20040;-68
2022/01/13 00:24:40;;;;;;;88.00;11.88;;;7.00;99.90;;;;;;5053419;28;20024;-68
2022/01/13 00:27:10;;;;;;;89.40;12.07;;;7.10;99.90;;;;;;5053210;28;20031;-68
2022/01/13 00:29:40;;;;;;;82.85;11.48;;;7.10;99.90;;;;;;5053931;28;20021;-68
2022/01/13 00:32:07;;;;;;;84.22;11.55;;;7.10;99.90;;;;;;5053312;28;20549;-68
2022/01/13 00:34:32;;;;;;;69.32;9.48;;;7.20;99.90;;;;;;5053236;28;20389;-69
2022/01/13 00:36:58;;;;;;;85.63;9.93;;;7.20;99.90;;;;;;5053531;28;20031;-68
2022/01/13 00:39:24;;;;;;;65.82;11.82;;;7.20;99.90;;;;;;5053536;28;20032;-68
2022/01/13 00:41:50;;;;;;;88.72;11.40;;;7.30;99.90;;;;;;5053318;28;20032;-68
2022/01/13 00:44:19;;;;;;;54.72;9.45;;;7.20;99.90;;;;;;5053487;28;20064;-68
2022/01/13 00:46:54;;;;;;;79.55;10.10;;;7.20;99.90;;;;;;5053141;28;20017;-68
2022/01/13 00:49:20;;;;;;;77.40;10.85;;;7.30;99.90;;;;;;5053437;28;20021;-68
2022/01/13 00:51:45;;;;;;;66.00;9.00;;;7.30;99.90;;;;;;5053134;28;20075;-68
2022/01/13 00:54:11;;;;;;;73.95;10.35;;;7.30;99.90;;;;;;5053346;28;20072;-68
2022/01/13 00:56:37;;;;;;;75.20;10.18;;;7.30;99.90;;;;;;5037837;28;20017;-68
2022/01/13 00:59:07;;;;;;;86.93;10.63;;;7.30;99.90;;;;;;5057286;28;20025;-68
2022/01/13 01:01:34;;;;;;;91.15;10.88;;;7.30;99.90;;;;;;5057161;28;20025;-68
2022/01/13 01:03:59;;;;;;;69.13;9.45;;;7.30;99.90;;;;;;5057132;28;20021;-68
2022/01/13 01:06:25;;;;;;;69.35;9.38;;;7.30;99.90;;;;;;5057012;28;20032;-68
2022/01/13 01:08:50;;;;;;;81.50;10.20;;;7.30;99.90;;;;;;5057034;28;20025;-68
2022/01/13 01:11:17;;;;;;;85.10;8.27;;;7.30;99.90;;;;;;5056956;28;20064;-68
2022/01/13 01:13:42;;;;;;;65.63;8.20;;;7.30;99.90;;;;;;5056883;28;20412;-68
2022/01/13 01:16:10;;;;;;;88.82;10.23;;;7.30;99.90;;;;;;5056913;28;20017;-68
2022/01/13 01:19:27;;;;;;;81.80;9.15;;;7.30;99.90;;;;;;5056765;28;20017;-68
2022/01/13 01:26:40;;;;;;;62.45;7.72;;;7.40;99.90;;;;;;5056869;28;20025;-68
2022/01/13 01:29:21;;;;;;;67.78;8.07;;;7.40;99.90;;;;;;5056991;28;20068;-68
2022/01/13 01:31:51;;;;;;;80.30;10.25;;;7.30;99.90;;;;;;5056954;28;20124;-68
2022/01/13 01:36:47;;;;;;;77.35;9.15;;;7.30;99.90;;;;;;5056786;28;20013;-68
2022/01/13 01:39:13;;;;;;;80.00;9.20;;;7.30;99.90;;;;;;5057287;28;20017;-69
2022/01/13 01:41:45;;;;;;;70.93;8.38;;;7.30;99.90;;;;;;5056464;28;20029;-69
2022/01/13 01:44:13;;;;;;;56.20;8.15;;;7.30;99.90;;;;;;5056435;28;20035;-69
2022/01/13 01:46:42;;;;;;;68.47;8.98;;;7.20;99.90;;;;;;5056288;28;20032;-69
2022/01/13 01:49:16;;;;;;;84.28;9.40;;;7.30;99.90;;;;;;5056595;28;20021;-69
2022/01/13 01:51:43;;;;;;;82.90;9.23;;;7.30;99.90;;;;;;5056494;28;20389;-69
2022/01/13 01:54:10;;;;;;;76.57;8.50;;;7.30;99.90;;;;;;5056423;28;20056;-69
2022/01/13 01:56:37;;;;;;;90.07;10.48;;;7.40;99.90;;;;;;5056092;28;20056;-69
2022/01/13 01:59:05;;;;;;;78.18;9.85;;;7.30;99.90;;;;;;5056088;28;20554;-69
2022/01/13 02:01:30;;;;;;;90.03;9.30;;;7.30;99.90;;;;;;5056589;28;20087;-69
2022/01/13 02:03:56;;;;;;;81.05;9.65;;;7.30;99.90;;;;;;5056050;28;20076;-69
2022/01/13 02:06:22;;;;;;;58.00;8.55;;;7.30;99.90;;;;;;5055531;28;20444;-69
2022/01/13 02:08:47;;;;;;;82.07;10.75;;;7.40;99.90;;;;;;5054935;28;20483;-69
2022/01/13 02:11:14;;;;;;;61.25;9.88;;;7.40;99.90;;;;;;5056130;28;20029;-69
2022/01/13 02:13:47;;;;;;;93.70;11.02;;;7.40;99.90;;;;;;5055798;28;20017;-69
2022/01/13 02:18:58;;;;;;;84.55;9.50;;;7.40;99.90;;;;;;5055772;28;20564;-69
2022/01/13 02:21:25;;;;;;;85.20;9.00;;;7.40;99.90;;;;;;5055644;28;20112;-69
2022/01/13 02:23:52;;;;;;;87.03;9.48;;;7.40;99.90;;;;;;5055654;28;20448;-69
2022/01/13 02:26:18;;;;;;;68.00;7.28;;;7.40;99.90;;;;;;5055518;28;20531;-69
2022/01/13 02:28:44;;;;;;;75.78;8.70;;;7.40;99.90;;;;;;5055460;28;20040;-69
2022/01/13 02:31:11;;;;;;;74.03;8.85;;;7.40;99.90;;;;;;5056085;28;20025;-69
2022/01/13 02:33:37;;;;;;;74.78;10.52;;;7.40;99.90;;;;;;5055656;28;20106;-69
2022/01/13 02:36:04;;;;;;;92.00;9.93;;;7.40;99.90;;;;;;5055417;28;20043;-69
2022/01/13 02:38:30;;;;;;;79.07;9.07;;;7.40;99.90;;;;;;5055253;28;20539;-69
2022/01/13 02:40:57;;;;;;;64.97;7.85;;;7.40;99.90;;;;;;5055875;28;20018;-69
2022/01/13 02:43:25;;;;;;;55.13;7.78;;;7.40;99.90;;;;;;5055295;28;20094;-69
2022/01/13 02:46:06;;;;;;;55.58;8.77;;;7.40;99.90;;;;;;5055306;28;20025;-69
2022/01/13 02:48:33;;;;;;;79.90;9.15;;;7.40;99.90;;;;;;5055199;28;20028;-69
2022/01/13 02:50:59;;;;;;;57.15;7.60;;;7.40;99.90;;;;;;5055452;28;20024;-69
2022/01/13 02:53:26;;;;;;;54.53;10.02;;;7.40;99.90;;;;;;5055280;28;20025;-69
2022/01/13 02:56:03;;;;;;;67.93;8.18;;;7.40;99.90;;;;;;5055060;28;20510;-69
2022/01/13 02:58:29;;;;;;;61.67;9.15;;;7.50;99.90;;;;;;5054969;28;20469;-69
2022/01/13 03:00:55;;;;;;;68.10;9.48;;;7.40;99.90;;;;;;5054959;28;20024;-69
2022/01/13 03:03:21;;;;;;;62.15;8.45;;;7.40;99.90;;;;;;5054919;28;20139;-69
2022/01/13 03:05:46;;;;;;;88.53;10.38;;;7.50;99.90;;;;;;5055145;28;20029;-69
2022/01/13 03:08:12;;;;;;;62.30;8.88;;;7.50;99.90;;;;;;5054816;28;20028;-69
2022/01/13 03:10:38;;;;;;;75.68;9.05;;;7.50;99.90;;;;;;5054799;28;20052;-69
2022/01/13 03:13:05;;;;;;;72.65;10.88;;;7.40;99.90;;;;;;5054675;28;20036;-69
2022/01/13 03:15:31;;;;;;;73.47;9.38;;;7.50;99.90;;;;;;5054949;28;20056;-69
2022/01/13 03:17:56;;;;;;;67.22;9.18;;;7.40;99.90;;;;;;5054435;28;20060;-69
2022/01/13 03:20:22;;;;;;;75.82;11.98;;;7.40;99.90;;;;;;5054463;28;20027;-69
2022/01/13 03:22:48;;;;;;;73.97;9.10;;;7.40;99.90;;;;;;5054540;28;20473;-69
2022/01/13 03:25:15;;;;;;;72.05;8.50;;;7.40;99.90;;;;;;5054469;28;20435;-69
2022/01/13 03:27:41;;;;;;;66.88;9.55;;;7.30;99.90;;;;;;5054288;28;20021;-69
2022/01/13 03:30:09;;;;;;;64.85;7.97;;;7.30;99.90;;;;;;5054380;28;20013;-69
2022/01/13 03:32:36;;;;;;;68.90;8.25;;;7.30;99.90;;;;;;5054210;28;20107;-69
2022/01/13 03:35:03;;;;;;;66.43;8.95;;;7.30;99.90;;;;;;5054323;28;20021;-69
2022/01/13 03:37:29;;;;;;;72.45;8.23;;;7.30;99.90;;;;;;5054129;28;20029;-69
2022/01/13 03:39:55;;;;;;;74.03;10.07;;;7.30;99.90;;;;;;5054132;28;20074;-69
2022/01/13 03:42:21;;;;;;;75.63;11.48;;;7.20;99.90;;;;;;5054119;28;20028;-69
2022/01/13 03:44:47;;;;;;;69.22;10.25;;;7.20;99.90;;;;;;5054091;28;20029;-69
2022/01/13 03:47:14;;;;;;;81.25;9.15;;;7.20;99.90;;;;;;5054273;28;20122;-69
2022/01/13 03:49:40;;;;;;;79.20;11.82;;;7.20;99.90;;;;;;5054326;28;20029;-69
2022/01/13 03:52:24;;;;;;;62.55;9.98;;;7.20;99.90;;;;;;5053981;28;20029;-69
2022/01/13 03:55:40;;;;;;;57.88;9.98;;;7.20;99.90;;;;;;5054111;28;20029;-69
2022/01/13 03:58:24;;;;;;;55.08;8.93;;;7.20;99.90;;;;;;5053651;28;20492;-69
2022/01/13 04:01:07;;;;;;;63.47;8.38;;;7.20;99.90;;;;;;5054085;28;20021;-69
2022/01/13 04:03:33;;;;;;;59.60;10.57;;;7.20;99.90;;;;;;5053770;28;20036;-69
2022/01/13 04:06:14;;;;;;;60.47;8.00;;;7.20;99.90;;;;;;5053712;28;20033;-69
2022/01/13 04:08:40;;;;;;;60.30;9.70;;;7.30;99.90;;;;;;5053689;28;20099;-69
2022/01/13 04:11:05;;;;;;;72.10;9.55;;;7.30;99.90;;;;;;5053669;28;20493;-69
2022/01/13 04:16:13;;;;;;;65.22;9.80;;;7.30;99.90;;;;;;5054073;28;20032;-69
2022/01/13 04:18:39;;;;;;;61.00;7.43;;;7.30;99.90;;;;;;5053564;28;20557;-69
2022/01/13 04:21:05;;;;;;;54.80;9.10;;;7.30;99.90;;;;;;5053515;28;20052;-69
2022/01/13 04:23:31;;;;;;;65.97;8.68;;;7.20;99.90;;;;;;5054021;28;20457;-69
2022/01/13 04:25:58;;;;;;;54.13;7.80;;;7.20;99.90;;;;;;5053442;28;20504;-69
2022/01/13 04:28:27;;;;;;;74.88;9.63;;;7.20;99.90;;;;;;5052668;28;20521;-69
2022/01/13 04:31:00;;;;;;;64.00;9.32;;;7.20;99.90;;;;;;5051613;28;20386;-69
2022/01/13 04:33:27;;;;;;;57.93;9.43;;;7.20;99.90;;;;;;5052838;28;20078;-69
2022/01/13 04:35:53;;;;;;;76.63;8.60;;;7.10;99.90;;;;;;5052859;28;20377;-69
2022/01/13 04:38:18;;;;;;;71.55;10.93;;;7.10;99.90;;;;;;5052459;28;20025;-69
2022/01/13 04:40:46;;;;;;;63.75;7.97;;;7.10;99.90;;;;;;5052500;28;20052;-69
2022/01/13 04:43:12;;;;;;;75.72;9.73;;;7.10;99.90;;;;;;5052498;28;20025;-69
2022/01/13 04:45:38;;;;;;;66.57;10.13;;;7.10;99.90;;;;;;5052435;28;20442;-69
2022/01/13 04:48:04;;;;;;;51.80;7.18;;;7.10;99.90;;;;;;5052316;28;20079;-69
2022/01/13 04:50:30;;;;;;;72.03;8.85;;;7.10;99.90;;;;;;5052644;28;20083;-69
2022/01/13 04:52:55;;;;;;;55.28;7.90;;;7.10;99.90;;;;;;5052304;28;20387;-69
2022/01/13 04:55:25;;;;;;;56.85;7.28;;;7.10;99.90;;;;;;5052275;28;20467;-68
2022/01/13 04:57:52;;;;;;;63.78;8.63;;;7.10;99.90;;;;;;5052227;28;20075;-68
2022/01/13 05:00:18;;;;;;;67.03;7.93;;;7.10;99.90;;;;;;5052228;28;20017;-68
2022/01/13 05:02:44;;;;;;;48.88;7.80;;;7.10;99.90;;;;;;5052211;28;20063;-68
2022/01/13 05:05:10;;;;;;;59.55;8.30;;;7.10;99.90;;;;;;5052447;28;20025;-68
2022/01/13 05:07:35;;;;;;;46.90;7.53;;;7.10;99.90;;;;;;5052087;28;20123;-68
2022/01/13 05:10:02;;;;;;;67.22;9.13;;;7.10;99.90;;;;;;5052113;28;20100;-68
2022/01/13 05:12:41;;;;;;;68.88;9.40;;;7.20;99.90;;;;;;5052362;28;20021;-68
2022/01/13 05:15:10;;;;;;;54.30;7.47;;;7.20;99.90;;;;;;5052088;28;20044;-68
2022/01/13 05:20:23;;;;;;;49.67;8.07;;;7.20;99.90;;;;;;5052337;28;20056;-68
2022/01/13 05:22:49;;;;;;;52.60;7.55;;;7.30;99.90;;;;;;5051997;28;20063;-68
2022/01/13 05:25:16;;;;;;;81.75;9.70;;;7.30;99.90;;;;;;5052190;28;20021;-68
2022/01/13 05:27:42;;;;;;;64.83;8.97;;;7.30;99.90;;;;;;5015908;28;1042760;-68
2022/01/13 05:30:09;;;;;;;52.40;7.80;;;7.30;99.90;;;;;;5053047;28;20266;-68
2022/01/13 05:32:35;;;;;;;64.07;9.55;;;7.40;99.90;;;;;;5052714;28;20022;-68
2022/01/13 05:35:01;;;;;;;57.50;8.63;;;7.40;99.90;;;;;;5052965;28;20025;-68
2022/01/13 05:37:27;;;;;;;50.33;8.10;;;7.40;99.90;;;;;;5052650;28;20473;-68
2022/01/13 05:39:53;;;;;;;39.13;9.57;;;7.40;99.90;;;;;;5052698;28;20033;-68
2022/01/13 05:42:18;;;;;;;64.75;10.32;;;7.40;99.90;;;;;;5055164;28;20021;-68
2022/01/13 05:44:44;;;;;;;47.83;7.32;;;7.50;99.90;;;;;;5056427;28;20032;-68
2022/01/13 05:47:12;;;;;;;75.88;10.90;;;7.50;99.90;;;;;;5056286;28;20443;-68
2022/01/13 05:49:40;;;;;;;52.50;9.13;;;7.50;99.90;;;;;;5038399;28;20029;-68
2022/01/13 05:52:10;;;;;;;52.28;7.80;;;7.40;99.90;;;;;;5056274;28;20025;-68
2022/01/13 05:54:36;;;;;;;62.88;8.85;;;7.50;99.90;;;;;;5038290;28;20021;-68
2022/01/13 05:57:03;;;;;;;53.65;9.07;;;7.50;99.90;;;;;;5056135;28;20087;-68
2022/01/13 05:59:28;;;;;;;56.05;8.30;;;7.50;99.90;;;;;;5056149;28;20458;-68
2022/01/13 06:01:54;;;;;;;73.63;9.63;;;7.50;99.90;;;;;;5056252;28;20079;-68
2022/01/13 06:04:19;;;;;;;63.10;10.77;;;7.50;99.90;;;;;;5056075;28;20078;-68
2022/01/13 06:06:45;;;;;;;64.78;8.75;;;7.50;99.90;;;;;;5055935;28;20477;-68
2022/01/13 06:09:11;;;;;;;58.25;8.82;;;7.50;99.90;;;;;;5055964;28;20036;-68
2022/01/13 06:11:39;;;;;;;51.63;11.60;;;7.50;99.90;;;;;;5056126;28;20102;-68
2022/01/13 06:14:05;;;;;;;52.75;8.48;;;7.50;99.90;;;;;;5056056;28;20021;-68
2022/01/13 06:16:31;;;;;;;67.57;8.70;;;7.50;99.90;;;;;;5055991;28;20106;-68
2022/01/13 06:18:57;;;;;;;57.70;9.40;;;7.60;99.90;;;;;;5056086;28;20401;-68
2022/01/13 06:21:22;;;;;;;83.68;11.20;;;7.60;99.90;;;;;;5055691;28;20023;-68
2022/01/13 06:23:48;;;;;;;48.78;7.93;;;7.60;99.90;;;;;;5055724;28;20104;-68
2022/01/13 06:26:13;;;;;;;51.40;7.45;;;7.60;99.90;;;;;;5055821;28;20104;-69
2022/01/13 06:28:39;;;;;;;58.20;7.85;;;7.60;99.90;;;;;;5055517;28;20159;-68
2022/01/13 06:31:05;;;;;;;55.28;8.27;;;7.60;99.90;;;;;;5055581;28;20033;-68
2022/01/13 06:33:31;;;;;;;47.17;7.55;;;7.60;99.90;;;;;;5055727;28;20025;-68
2022/01/13 06:35:56;;;;;;;52.53;7.05;;;7.60;99.90;;;;;;5055465;28;20103;-68
2022/01/13 06:38:23;;;;;;;55.60;8.23;;;7.60;99.90;;;;;;5055601;28;20415;-68
2022/01/13 06:40:50;;;;;;;61.97;8.52;;;7.50;99.90;;;;;;5055354;28;20476;-68
2022/01/13 06:43:16;;;;;;;64.90;7.97;;;7.50;99.90;;;;;;5055354;28;20025;-68
2022/01/13 06:45:41;;;;;;;55.95;8.63;;;7.50;99.90;;;;;;5055855;28;20031;-68
2022/01/13 06:48:07;;;;;;;63.80;10.13;;;7.50;99.90;;;;;;5055222;28;20039;-68
2022/01/13 06:50:34;;;;;;;41.95;6.93;;;7.50;99.90;;;;;;5055454;28;20036;-68
2022/01/13 06:52:59;;;;;;;50.13;7.85;;;7.50;99.90;;;;;;5054422;28;20107;-68
2022/01/13 06:55:25;;;;;;;65.30;8.55;;;7.50;99.90;;;;;;5055406;28;20067;-68
2022/01/13 06:57:52;;;;;;;58.00;8.02;;;7.50;99.90;;;;;;5055181;28;20021;-68
2022/01/13 07:00:18;;;;;;;63.92;8.50;;;7.50;99.90;;;;;;5055275;28;20045;-68
2022/01/13 07:02:44;;;;;;;51.30;8.25;;;7.50;99.90;;;;;;5054919;28;20098;-68
2022/01/13 07:05:10;;;;;;;58.28;7.07;;;7.50;99.90;;;;;;5055240;28;20480;-68
2022/01/13 07:07:39;;;;;;;66.78;10.02;;;7.50;99.90;;;;;;5054972;28;20021;-68
2022/01/13 07:10:05;;;;;;;52.25;8.60;;;7.50;99.90;;;;;;5054823;28;20095;-68
2022/01/13 07:12:31;;;;;;;62.03;9.88;;;7.50;99.90;;;;;;5054687;28;20075;-68
2022/01/13 07:14:57;;;;;;;76.63;10.57;;;7.50;99.90;;;;;;5054647;28;20028;-68
2022/01/13 07:17:23;;;;;;;73.55;8.88;;;7.50;99.90;;;;;;5055138;28;20078;-68
2022/01/13 07:19:51;;;;;;;51.15;8.00;;;7.50;99.90;;;;;;5054866;28;20017;-69
2022/01/13 07:22:17;;;;;;;63.17;10.13;;;7.50;99.90;;;;;;5054593;28;20096;-68
2022/01/13 07:24:43;;;;;;;68.53;8.55;;;7.50;99.90;;;;;;5054766;28;20064;-68
2022/01/13 07:27:08;;;;;;;83.40;13.38;;;7.50;99.90;;;;;;5054343;28;20033;-68
2022/01/13 07:29:34;;;;;;;73.00;11.18;;;7.50;99.90;;;;;;5054425;28;20477;-68
2022/01/13 07:31:59;;;;;;;62.00;8.98;;;7.40;99.90;;;;;;5054370;28;20452;-68
2022/01/13 07:34:25;;;;;;;69.22;11.30;;;7.40;99.90;;;;;;5054520;28;20489;-68
2022/01/13 07:36:51;;;;;;;66.35;10.40;;;7.40;99.90;;;;;;5054259;28;20029;-69
2022/01/13 07:39:17;;;;;;;80.47;11.02;;;7.40;99.90;;;;;;5107078;22;20056;-68
2022/01/13 07:41:42;;;;;;;65.47;11.30;;;7.40;99.90;;;;;;5034506;28;20025;-68
2022/01/13 07:44:08;;;;;;;66.20;10.35;;;7.40;99.90;;;;;;5034309;28;20025;-68
2022/01/13 07:46:35;;;;;;;69.82;10.80;;;7.40;99.90;;;;;;5034276;28;20384;-67
2022/01/13 07:49:00;;;;;;;59.08;9.40;;;7.40;99.90;;;;;;5034685;28;20377;-67
2022/01/13 07:51:26;;;;;;;56.53;9.45;;;7.40;99.90;;;;;;5034143;28;20044;-67
2022/01/13 07:53:52;;;;;;;56.15;11.50;;;7.40;99.90;;;;;;5034089;28;20033;-68
2022/01/13 07:56:17;;;;;;;64.45;8.98;;;7.40;99.90;;;;;;5034079;28;20053;-67
2022/01/13 07:58:44;;;;;;;60.25;9.50;;;7.40;99.90;;;;;;5034230;28;20029;-67
2022/01/13 08:01:09;;;;;;;42.20;8.32;;;7.40;99.90;;;;;;5034012;28;20456;-69
2022/01/13 08:03:35;;;;;;;60.08;9.57;;;7.40;99.90;;;;;;5033911;28;20057;-69
2022/01/13 08:06:01;;;;;;;43.60;8.18;;;7.40;99.90;;;;;;5033868;28;20057;-67
2022/01/13 08:08:27;;;;;;;66.45;8.85;;;7.50;99.90;;;;;;5033964;28;20390;-68
2022/01/13 08:10:52;;;;;;;35.70;6.93;;;7.50;99.90;;;;;;5033731;28;20021;-69
2022/01/13 08:13:18;;;;;;;70.03;8.82;;;7.50;99.90;;;;;;5034299;28;20076;-67
2022/01/13 08:15:44;;;;;;;64.78;8.63;;;7.50;99.90;;;;;;5033719;28;20026;-67
2022/01/13 08:20:54;;;;;;;40.63;7.97;;;7.60;99.90;;;;;;5033956;28;20091;-69
2022/01/13 08:23:19;;;;;;;46.45;8.18;;;7.60;99.90;;;;;;5033642;28;20516;-67
2022/01/13 08:25:45;;;;;;;58.08;8.95;;;7.60;99.90;;;;;;5033677;28;20033;-68
2022/01/13 08:28:11;;;;;;;47.40;7.47;;;7.60;99.90;;;;;;5033603;28;20044;-68
2022/01/13 08:30:37;;;;;;;47.40;7.57;;;7.60;99.90;;;;;;5033494;28;20057;-68
2022/01/13 08:33:03;;;;;;;53.70;9.25;;;7.70;99.90;;;;;;5033511;28;20069;-68
2022/01/13 08:35:28;;;;;;;47.08;6.88;;;7.70;99.90;;;;;;5033476;28;20432;-69
2022/01/13 08:37:54;;;;;;;41.05;6.90;;;7.70;99.90;;;;;;5033508;28;20028;-67
2022/01/13 08:40:20;;;;;;;53.65;8.77;;;7.80;99.90;;;;;;5033321;28;20021;-67
2022/01/13 08:42:46;;;;;;;56.17;9.00;;;7.80;99.90;;;;;;5033365;28;20381;-67
2022/01/13 08:45:13;;;;;;;40.92;5.43;;;7.80;99.90;;;;;;5033330;28;20492;-67
2022/01/13 08:47:38;;;;;;;47.28;8.68;;;7.80;99.90;;;;;;5033342;28;20108;-67
2022/01/13 08:50:07;;;;;;;42.88;6.13;;;7.90;99.90;;;;;;5033326;28;20061;-67
2022/01/13 08:52:35;;;;;;;58.15;7.68;;;7.90;99.90;;;;;;5033373;28;20021;-67
2022/01/13 08:55:01;;;;;;;45.80;6.70;;;7.90;99.90;;;;;;5033283;28;20027;-67
2022/01/13 08:57:26;;;;;;;35.08;6.13;;;7.90;99.90;;;;;;5033216;28;20112;-67
2022/01/13 08:59:52;;;;;;;38.08;5.78;;;7.90;99.90;;;;;;5033172;28;20026;-67
2022/01/13 09:02:17;;;;;;;58.13;6.05;;;7.90;99.90;;;;;;5033187;28;20037;-67
2022/01/13 09:04:43;;;;;;;40.55;6.22;;;8.00;99.90;;;;;;5033463;28;20108;-67
2022/01/13 09:07:08;;;;;;;49.65;7.85;;;7.90;99.90;;;;;;5033161;28;20541;-67
2022/01/13 09:09:34;;;;;;;53.42;8.85;;;7.90;99.90;;;;;;5033206;28;20029;-69
2022/01/13 09:12:00;;;;;;;47.00;7.47;;;7.90;99.90;;;;;;5033134;28;20375;-69
2022/01/13 09:14:28;;;;;;;43.95;5.45;;;7.90;99.90;;;;;;5033272;28;20029;-69
2022/01/13 09:16:54;;;;;;;53.80;7.22;;;7.90;99.90;;;;;;5034373;28;20033;-69
2022/01/13 09:19:20;;;;;;;54.20;6.60;;;7.90;99.90;;;;;;5037258;28;20029;-69
2022/01/13 09:21:47;;;;;;;63.03;7.25;;;7.90;99.90;;;;;;5037132;28;20021;-69
2022/01/13 09:24:15;;;;;;;39.22;7.78;;;7.80;99.90;;;;;;5037440;28;20029;-69
2022/01/13 09:26:42;;;;;;;50.58;7.63;;;7.80;99.90;;;;;;5037061;28;20036;-67
2022/01/13 09:29:09;;;;;;;52.60;7.80;;;7.70;99.90;;;;;;5037097;28;20100;-67
2022/01/13 09:31:37;;;;;;;50.33;7.15;;;7.70;99.90;;;;;;5037099;28;20024;-67
2022/01/13 09:34:04;;;;;;;43.67;7.28;;;7.70;99.90;;;;;;5037412;28;20424;-68
2022/01/13 09:36:31;;;;;;;40.35;6.22;;;7.70;99.90;;;;;;5038632;28;20480;-67
2022/01/13 09:38:58;;;;;;;52.13;7.80;;;7.70;99.90;;;;;;5036754;28;20063;-67
2022/01/13 09:41:26;;;;;;;47.85;6.65;;;7.70;99.90;;;;;;5036639;28;20021;-67
2022/01/13 09:43:52;;;;;;;36.10;6.18;;;7.70;99.90;;;;;;5036582;28;20018;-67
2022/01/13 09:46:18;;;;;;;49.00;5.97;;;7.70;99.90;;;;;;5036500;28;20026;-67
2022/01/13 09:48:45;;;;;;;61.17;8.05;;;7.80;99.90;;;;;;5036650;28;20033;-67
2022/01/13 09:51:11;;;;;;;49.58;7.75;;;7.80;99.90;;;;;;5036380;28;20022;-68
2022/01/13 09:53:37;;;;;;;53.47;6.63;;;7.80;99.90;;;;;;5036316;28;20161;-68
2022/01/13 09:56:04;;;;;;;54.47;8.18;;;7.80;99.90;;;;;;5036393;28;20216;-68
2022/01/13 09:58:29;;;;;;;64.47;7.43;;;7.80;99.90;;;;;;5036654;28;20511;-69
2022/01/13 10:00:56;;;;;;;54.10;6.38;;;7.80;99.90;;;;;;5036230;28;20057;-68
2022/01/13 10:03:26;;;;;;;52.42;7.53;;;7.80;99.90;;;;;;5036494;28;20047;-68
2022/01/13 10:05:58;;;;;;;45.80;6.07;;;7.90;99.90;;;;;;5036765;28;20084;-68
2022/01/13 10:08:44;;;;;;;52.67;6.97;;;7.90;99.90;;;;;;5036067;28;20511;-68
2022/01/13 10:11:38;;;;;;;59.90;7.03;;;7.90;99.90;;;;;;5036071;28;20155;-67
2022/01/13 10:16:23;;;;;;;64.57;6.43;;;7.90;99.90;;;;;;5036253;28;20030;-67
2022/01/13 10:17:05;;;;;;;48.72;6.90;;;7.90;99.90;;;;;;5035937;28;20030;-67
2022/01/13 10:19:32;;;;;;;40.58;6.90;;;7.90;99.90;;;;;;5036005;28;20013;-67
2022/01/13 10:22:02;;;;;;;55.08;7.10;;;7.90;99.90;;;;;;5036132;28;20032;-67
2022/01/13 10:24:30;;;;;;;49.90;6.95;;;7.90;99.90;;;;;;5036125;28;20053;-67
2022/01/13 10:27:03;;;;;;;48.70;8.00;;;7.90;99.90;;;;;;5035769;28;20381;-67
2022/01/13 10:29:51;;;;;;;48.97;7.32;;;7.90;99.90;;;;;;5034741;28;20060;-67
2022/01/13 10:32:40;;;;;;;53.95;7.63;;;7.80;99.90;;;;;;5035982;28;20377;-67
2022/01/13 10:35:12;;;;;;;53.08;6.75;;;7.90;99.90;;;;;;5035486;28;20116;-68
2022/01/13 10:38:02;;;;;;;46.42;8.25;;;7.80;99.90;;;;;;5035601;28;20059;-68
2022/01/13 10:40:33;;;;;;;48.13;7.05;;;7.80;99.90;;;;;;5035480;28;20025;-67
2022/01/13 10:45:41;;;;;;;39.00;5.15;;;7.80;99.90;;;;;;5035754;28;20026;-68
2022/01/13 10:48:15;;;;;;;45.50;6.13;;;7.80;99.90;;;;;;5035704;28;20029;-68
2022/01/13 10:51:07;;;;;;;48.17;5.88;;;7.80;99.90;;;;;;5035272;28;20092;-69
2022/01/13 10:53:37;;;;;;;43.88;6.05;;;7.90;99.90;;;;;;5031655;28;20406;-69
2022/01/13 10:56:09;;;;;;;47.67;6.40;;;7.90;99.90;;;;;;5035510;28;20025;-69
2022/01/13 10:58:41;;;;;;;34.65;6.18;;;7.90;99.90;;;;;;5035465;28;20028;-68
2022/01/13 11:01:09;;;;;;;66.57;8.40;;;7.90;99.90;;;;;;5035080;28;20056;-68
2022/01/13 11:03:39;;;;;;;34.58;6.30;;;8.00;99.90;;;;;;5035357;28;20029;-68
2022/01/13 11:06:08;;;;;;;52.58;7.60;;;8.00;99.90;;;;;;5035334;28;20028;-68
2022/01/13 11:08:41;;;;;;;35.75;6.82;;;8.00;99.90;;;;;;5035212;28;20084;-68
2022/01/13 11:11:16;;;;;;;;;;;8.00;99.90;;;;;;5035470;28;20121;-68
2022/01/13 11:13:48;;;;;;;;;;;8.00;99.90;;;;;;5035563;28;20365;-68
2022/01/13 11:16:14;;;;;;;46.83;5.68;;;8.00;99.90;;;;;;5035141;28;20384;-69
2022/01/13 11:18:39;;;;;;;43.45;8.27;;;8.00;99.90;;;;;;5034694;28;20104;-68
2022/01/13 11:21:05;;;;;;;62.78;6.05;;;8.00;99.90;;;;;;5034744;28;20029;-68
2022/01/13 11:23:32;;;;;;;49.45;6.22;;;7.90;99.90;;;;;;5034974;28;20028;-69
2022/01/13 11:25:58;;;;;;;57.05;6.57;;;7.90;99.90;;;;;;5034707;28;20024;-68
2022/01/13 11:28:24;;;;;;;52.95;6.75;;;7.90;99.90;;;;;;5034663;28;20021;-68
2022/01/13 11:30:50;;;;;;;53.72;7.57;;;7.90;99.90;;;;;;5034438;28;20113;-69
2022/01/13 11:33:17;;;;;;;41.65;5.82;;;8.00;99.90;;;;;;5034513;28;20026;-68
2022/01/13 11:35:50;;;;;;;51.15;7.40;;;7.90;99.90;;;;;;5034479;28;20041;-67
2022/01/13 11:38:18;;;;;;;50.42;6.32;;;7.90;99.90;;;;;;5034499;28;20026;-67
2022/01/13 11:40:47;;;;;;;42.00;7.80;;;7.90;99.90;;;;;;5033921;28;20044;-67
2022/01/13 11:43:22;;;;;;;43.88;5.20;;;7.90;99.90;;;;;;5034213;28;20033;-69
2022/01/13 11:45:48;;;;;;;49.30;6.32;;;7.90;99.90;;;;;;5034313;28;20029;-67
2022/01/13 11:48:26;;;;;;;48.78;7.50;;;8.00;99.90;;;;;;5034511;28;20048;-67
2022/01/13 11:51:14;;;;;;;47.70;6.68;;;8.00;99.90;;;;;;5034210;28;20026;-68
2022/01/13 11:53:54;;;;;;;50.08;7.30;;;7.90;99.90;;;;;;5034343;28;20032;-67
2022/01/13 11:56:19;;;;;;;35.15;5.30;;;7.90;99.90;;;;;;5034113;28;20481;-69
2022/01/13 11:58:46;;;;;;;47.97;8.85;;;7.90;99.90;;;;;;5033996;28;20029;-69
2022/01/13 12:01:25;;;;;;;48.40;9.10;;;7.90;99.90;;;;;;5033945;28;20504;-68
2022/01/13 12:03:56;;;;;;;39.45;6.03;;;7.90;99.90;;;;;;5034251;28;20504;-68
2022/01/13 12:06:50;;;;;;;44.45;7.82;;;7.90;99.90;;;;;;5034218;28;20026;-69
2022/01/13 12:09:22;;;;;;;38.72;8.00;;;7.90;99.90;;;;;;5034055;28;20022;-67
2022/01/13 12:11:55;;;;;;;47.60;6.53;;;7.90;99.90;;;;;;5016100;28;20033;-69
2022/01/13 12:14:27;;;;;;;41.65;6.70;;;7.90;99.90;;;;;;5034079;28;20110;-68
2022/01/13 12:17:10;;;;;;;48.65;7.45;;;7.80;99.90;;;;;;5034048;28;20091;-69
2022/01/13 12:19:43;;;;;;;57.15;6.85;;;7.90;99.90;;;;;;5034016;28;20045;-69
2022/01/13 12:22:18;;;;;;;60.40;7.47;;;7.90;99.90;;;;;;5034308;28;20021;-68
2022/01/13 12:24:52;;;;;;;39.95;7.40;;;7.80;99.90;;;;;;5033580;28;20025;-67
2022/01/13 12:27:20;;;;;;;44.45;8.15;;;7.80;99.90;;;;;;5033745;28;20030;-67
2022/01/13 12:29:50;;;;;;;54.40;7.25;;;7.80;99.90;;;;;;5033475;28;20044;-68
2022/01/13 12:32:32;;;;;;;45.20;6.30;;;7.80;99.90;;;;;;5033524;28;20071;-67
2022/01/13 12:34:58;;;;;;;37.38;5.88;;;7.80;99.90;;;;;;5033727;28;20025;-67
2022/01/13 12:37:26;;;;;;;52.38;6.75;;;7.80;99.90;;;;;;5033558;28;20030;-69
2022/01/13 12:40:20;;;;;;;59.50;7.68;;;7.80;99.90;;;;;;5033280;28;20478;-67
2022/01/13 12:42:51;;;;;;;;;;;7.80;99.90;;;;;;5029889;28;20052;-68
2022/01/13 12:45:29;;;;;;;50.97;6.80;;;7.80;99.90;;;;;;5033564;28;20389;-67
2022/01/13 12:48:09;;;;;;;58.78;7.60;;;7.80;99.90;;;;;;5033661;28;20033;-68
2022/01/13 12:50:36;;;;;;;65.72;8.00;;;7.80;99.90;;;;;;5033194;28;20489;-68
2022/01/13 12:53:25;;;;;;;61.38;8.38;;;7.80;99.90;;;;;;5032793;28;20541;-68
2022/01/13 12:55:58;;;;;;;66.25;7.97;;;7.80;99.90;;;;;;5033277;28;20021;-68
2022/01/13 12:58:26;;;;;;;53.72;7.22;;;7.70;99.90;;;;;;5033584;28;20525;-68
2022/01/13 13:01:04;;;;;;;63.90;8.52;;;7.80;99.90;;;;;;5033153;28;20018;-69
2022/01/13 13:03:29;;;;;;;52.50;8.65;;;7.80;99.90;;;;;;5033038;28;20029;-69
2022/01/13 13:05:56;;;;;;;56.63;8.15;;;7.70;99.90;;;;;;5033310;28;20075;-67
2022/01/13 13:08:24;;;;;;;46.63;8.02;;;7.70;99.90;;;;;;5033086;28;20038;-67
2022/01/13 13:10:56;;;;;;;53.10;6.95;;;7.70;99.90;;;;;;5033057;28;20029;-67
2022/01/13 13:13:23;;;;;;;48.17;7.45;;;7.70;99.90;;;;;;5033326;28;20033;-68
2022/01/13 13:15:57;;;;;;;53.53;8.13;;;7.70;99.90;;;;;;5033084;28;20041;-67
2022/01/13 13:18:25;;;;;;;63.70;14.90;;;7.70;99.90;;;;;;5033163;28;20057;-67
2022/01/13 13:20:53;;;;;;;70.18;9.70;;;7.70;99.90;;;;;;5032912;28;20037;-67
2022/01/13 13:23:31;;;;;;;60.20;7.35;;;7.70;99.90;;;;;;5033279;28;20022;-67